Time;durP1;ratioP1;P1;durP2;ratioP2;P2;SDS_P1;SDS_P2;PMS_P1;PMS_P2;Temp;Humidity;BMP_temperature;BMP_pressure;BME280_temperature;BME280_humidity;BME280_pressure;Samples;Min_cycle;Max_cycle;Signal;HPM_P1;HPM_P2
2022/04/28 00:02:14;;;;;;;;;;;;;;;14.33;63.69;99756.13;4950105;28;20460;-85
2022/04/28 00:04:39;;;;;;;;;;;;;;;14.39;63.75;99752.38;4950814;29;19993;-86
2022/04/28 00:07:04;;;;;;;;;;;;;;;14.35;63.61;99756.06;4950019;28;20391;-86
2022/04/28 00:09:30;;;;;;;;;;;;;;;14.20;63.81;99753.88;4950455;28;20684;-86
2022/04/28 00:11:55;;;;;;;;;;;;;;;14.32;63.77;99754.38;4948788;28;19919;-85
2022/04/28 00:14:21;;;;;;;;;;;;;;;14.38;63.29;99750.69;4949019;28;20436;-85
2022/04/28 00:16:46;;;;;;;;;;;;;;;14.42;62.83;99756.75;4950613;28;20400;-85
2022/04/28 00:19:11;;;;;;;;;;;;;;;14.28;63.50;99758.00;4949908;28;19922;-86
2022/04/28 00:21:37;;;;;;;;;;;;;;;14.21;63.72;99759.13;4949223;28;19919;-85
2022/04/28 00:24:02;;;;;;;;;;;;;;;13.94;64.94;99744.84;4949131;28;19922;-85
2022/04/28 00:26:28;;;;;;;;;;;;;;;13.99;64.68;99750.88;4949677;28;19974;-85
2022/04/28 00:28:53;;;;;;;;;;;;;;;14.11;63.84;99750.53;4948770;28;19914;-85
2022/04/28 00:31:18;;;;;;;;;;;;;;;13.88;65.10;99740.59;4950007;28;19932;-85
2022/04/28 00:33:44;;;;;;;;;;;;;;;13.83;64.75;99739.84;4949978;28;19915;-86
2022/04/28 00:36:09;;;;;;;;;;;;;;;13.92;64.41;99746.69;4949283;28;20032;-86
2022/04/28 00:38:35;;;;;;;;;;;;;;;13.99;63.98;99744.72;4950005;28;20029;-86
2022/04/28 00:41:00;;;;;;;;;;;;;;;13.87;64.97;99737.97;4948764;28;20005;-85
2022/04/28 00:43:29;;;;;;;;;;;;;;;13.86;64.67;99747.72;4948841;28;19928;-85
2022/04/28 00:45:54;;;;;;;;;;;;;;;13.97;64.38;99747.41;4949685;28;19922;-86
2022/04/28 00:51:04;;;;;;;;;;;;;;;14.06;64.53;99748.97;4949562;29;20348;-86
2022/04/28 00:53:30;;;;;;;;;;;;;;;14.05;63.86;99745.41;4948895;28;19922;-85
2022/04/28 00:55:59;;;;;;;;;;;;;;;14.11;64.20;99745.25;4949123;28;19923;-86
2022/04/28 00:58:24;;;;;;;;;;;;;;;13.99;64.16;99748.25;4947017;29;19923;-86
2022/04/28 01:00:50;;;;;;;;;;;;;;;14.01;63.96;99749.09;4948425;28;19918;-87
2022/04/28 01:03:16;;;;;;;;;;;;;;;14.00;64.63;99751.78;4949102;28;19922;-86
2022/04/28 01:05:42;;;;;;;;;;;;;;;13.98;64.80;99741.22;4948405;29;19914;-85
2022/04/28 01:08:07;;;;;;;;;;;;;;;13.99;64.17;99740.28;4949342;28;19919;-86
2022/04/28 01:10:34;;;;;;;;;;;;;;;14.01;64.26;99741.13;4949635;28;19925;-86
2022/04/28 01:12:59;;;;;;;;;;;;;;;13.98;64.02;99743.88;4948795;28;19922;-86
2022/04/28 01:15:25;;;;;;;;;;;;;;;13.92;64.05;99741.38;4949358;28;19918;-87
2022/04/28 01:17:50;;;;;;;;;;;;;;;13.95;64.26;99741.31;4948726;28;19918;-87
2022/04/28 01:20:15;;;;;;;;;;;;;;;13.86;64.43;99746.88;4949116;28;20453;-87
2022/04/28 01:22:42;;;;;;;;;;;;;;;13.74;64.62;99748.91;4949317;29;20415;-87
2022/04/28 01:25:08;;;;;;;;;;;;;;;13.83;64.18;99746.94;4948852;28;20021;-86
2022/04/28 01:27:37;;;;;;;;;;;;;;;13.86;64.25;99746.88;4949544;28;20021;-86
2022/04/28 01:30:03;;;;;;;;;;;;;;;13.81;64.36;99741.69;4949223;28;20408;-86
2022/04/28 01:32:28;;;;;;;;;;;;;;;13.76;64.40;99747.13;4948700;28;19998;-85
2022/04/28 01:34:53;;;;;;;;;;;;;;;13.79;64.24;99749.69;4948892;28;19919;-86
2022/04/28 01:37:19;;;;;;;;;;;;;;;13.84;64.86;99746.00;4949359;28;19919;-86
2022/04/28 01:39:44;;;;;;;;;;;;;;;13.78;64.43;99742.63;4948949;28;20009;-85
2022/04/28 01:42:09;;;;;;;;;;;;;;;13.75;64.05;99745.38;4949119;28;19969;-87
2022/04/28 01:44:35;;;;;;;;;;;;;;;13.73;64.66;99746.31;4949145;28;19958;-86
2022/04/28 01:47:00;;;;;;;;;;;;;;;13.64;64.38;99741.25;4949205;28;20399;-87
2022/04/28 01:49:26;;;;;;;;;;;;;;;13.61;65.41;99742.22;4947272;29;20036;-87
2022/04/28 01:57:19;;;;;;;;;;;;;;;13.65;64.66;99749.16;4947571;29;19978;-88
2022/04/28 01:59:44;;;;;;;;;;;;;;;13.63;64.60;99751.00;4949235;28;19918;-88
2022/04/28 02:02:10;;;;;;;;;;;;;;;13.61;64.81;99752.81;4948615;28;19923;-88
2022/04/28 02:04:35;;;;;;;;;;;;;;;13.55;64.85;99750.34;4948479;28;19922;-88
2022/04/28 02:07:00;;;;;;;;;;;;;;;13.57;64.85;99752.03;4947019;28;19930;-87
2022/04/28 02:09:26;;;;;;;;;;;;;;;13.59;64.92;99754.63;4949107;28;19957;-88
2022/04/28 02:11:51;;;;;;;;;;;;;;;13.55;64.88;99751.19;4947798;28;20357;-89
2022/04/28 02:14:17;;;;;;;;;;;;;;;13.48;65.16;99752.25;4950266;28;19922;-88
2022/04/28 02:16:42;;;;;;;;;;;;;;;13.45;64.89;99748.81;4951689;28;19923;-88
2022/04/28 02:19:07;;;;;;;;;;;;;;;13.40;65.18;99755.09;4952007;28;20424;-89
2022/04/28 02:21:33;;;;;;;;;;;;;;;13.34;65.34;99747.31;4951576;29;19981;-88
2022/04/28 02:23:58;;;;;;;;;;;;;;;13.33;65.54;99748.25;4951191;28;19923;-87
2022/04/28 02:26:23;;;;;;;;;;;;;;;13.34;65.12;99749.97;4952169;28;19918;-87
2022/04/28 02:28:48;;;;;;;;;;;;;;;13.33;65.38;99748.25;4950958;28;19922;-87
2022/04/28 02:31:14;;;;;;;;;;;;;;;13.32;65.06;99750.91;4952262;28;19914;-89
2022/04/28 02:33:39;;;;;;;;;;;;;;;13.30;65.26;99748.28;4952050;28;19922;-89
2022/04/28 02:36:06;;;;;;;;;;;;;;;13.37;65.20;99752.53;4952243;28;19921;-89
2022/04/28 02:38:31;;;;;;;;;;;;;;;13.33;65.28;99753.53;4951341;29;20455;-85
2022/04/28 02:40:57;;;;;;;;;;;;;;;13.18;65.18;99753.91;4958200;28;20006;-86
2022/04/28 02:43:23;;;;;;;;;;;;;;;13.13;65.77;99748.72;4956415;28;19922;-86
2022/04/28 02:45:49;;;;;;;;;;;;;;;13.13;65.68;99753.13;4957648;28;19918;-85
2022/04/28 02:48:14;;;;;;;;;;;;;;;12.91;66.48;99756.28;4953193;29;19918;-89
2022/04/28 02:50:40;;;;;;;;;;;;;;;12.99;66.07;99757.00;4951810;28;19922;-88
2022/04/28 02:53:05;;;;;;;;;;;;;;;13.01;66.03;99759.59;4952149;28;19922;-87
2022/04/28 02:55:30;;;;;;;;;;;;;;;12.97;66.79;99758.78;4952029;28;19918;-89
2022/04/28 02:57:56;;;;;;;;;;;;;;;13.02;66.22;99756.03;4951562;29;19989;-88
2022/04/28 03:00:21;;;;;;;;;;;;;;;13.10;65.75;99756.72;4951596;28;20803;-89
2022/04/28 03:02:47;;;;;;;;;;;;;;;12.88;66.82;99756.34;4941623;28;19971;-89
2022/04/28 03:05:12;;;;;;;;;;;;;;;12.92;66.58;99758.03;4952073;28;20043;-88
2022/04/28 03:10:49;;;;;;;;;;;;;;;12.86;67.09;99756.38;4951149;29;19985;-92
2022/04/28 03:13:17;;;;;;;;;;;;;;;12.94;67.17;99763.28;4951974;28;19987;-90
2022/04/28 03:15:43;;;;;;;;;;;;;;;12.87;67.02;99768.72;4951874;28;19918;-89
2022/04/28 03:18:08;;;;;;;;;;;;;;;12.93;67.35;99769.47;4963040;28;19993;-93
2022/04/28 03:20:33;;;;;;;;;;;;;;;12.93;66.88;99765.06;4943683;29;19918;-87
2022/04/28 03:22:59;;;;;;;;;;;;;;;12.95;67.15;99779.13;4951827;28;19929;-90
2022/04/28 03:25:24;;;;;;;;;;;;;;;12.98;67.21;99780.84;4949946;28;19929;-94
2022/04/28 03:27:49;;;;;;;;;;;;;;;13.00;67.02;99784.31;4950666;29;20005;-91
2022/04/28 03:30:15;;;;;;;;;;;;;;;13.00;67.30;99787.84;4952216;28;20302;-93
2022/04/28 03:32:42;;;;;;;;;;;;;;;13.13;67.21;99793.72;4950489;29;20407;-94
2022/04/28 03:35:11;;;;;;;;;;;;;;;13.19;67.02;99793.59;4950866;28;20308;-91
2022/04/28 03:37:36;;;;;;;;;;;;;;;13.13;67.35;99801.69;4935265;29;20435;-87
2022/04/28 03:40:01;;;;;;;;;;;;;;;13.07;67.04;99805.34;4951660;28;19914;-90
2022/04/28 03:42:28;;;;;;;;;;;;;;;12.98;67.66;99807.34;4952240;29;19929;-94
2022/04/28 03:44:54;;;;;;;;;;;;;;;13.10;68.02;99808.81;4963941;28;20408;-89
2022/04/28 03:47:21;;;;;;;;;;;;;;;13.04;68.64;99818.66;4971299;28;19914;-93
2022/04/28 03:49:46;;;;;;;;;;;;;;;13.18;68.50;99820.97;4963891;28;19930;-90
2022/04/28 03:52:11;;;;;;;;;;;;;;;13.31;68.54;99825.97;4951389;28;19926;-86
2022/04/28 03:54:37;;;;;;;;;;;;;;;13.41;67.80;99828.41;4950493;28;19918;-87
2022/04/28 03:57:02;;;;;;;;;;;;;;;13.60;68.04;99827.94;4950921;28;19938;-86
2022/04/28 03:59:27;;;;;;;;;;;;;;;13.54;67.30;99825.44;4950537;28;19973;-86
2022/04/28 04:01:53;;;;;;;;;;;;;;;13.64;66.99;99826.97;4950658;28;19918;-86
2022/04/28 04:04:18;;;;;;;;;;;;;;;13.67;66.85;99833.94;4951178;28;19925;-86
2022/04/28 04:06:43;;;;;;;;;;;;;;;13.85;66.34;99837.91;4951351;29;20376;-86
2022/04/28 04:09:09;;;;;;;;;;;;;;;13.88;66.34;99843.13;4950441;28;19922;-85
2022/04/28 04:11:34;;;;;;;;;;;;;;;14.04;65.89;99854.19;4951469;28;19915;-85
2022/04/28 04:13:59;;;;;;;;;;;;;;;14.14;65.13;99851.25;4970129;28;19925;-86
2022/04/28 04:16:24;;;;;;;;;;;;;;;14.23;65.04;99854.59;4969200;28;19925;-87
2022/04/28 04:18:50;;;;;;;;;;;;;;;14.00;65.52;99864.03;4964966;28;19982;-88
2022/04/28 04:21:15;;;;;;;;;;;;;;;13.59;66.64;99877.44;4950923;28;19948;-87
2022/04/28 04:23:42;;;;;;;;;;;;;;;13.40;67.24;99874.34;4952070;28;20019;-86
2022/04/28 04:26:07;;;;;;;;;;;;;;;13.24;67.89;99872.94;4950977;28;19965;-87
2022/04/28 04:28:33;;;;;;;;;;;;;;;13.58;67.35;99880.13;4950023;28;19946;-85
2022/04/28 04:33:42;;;;;;;;;;;;;;;13.52;67.88;99880.28;4950318;29;19930;-87
2022/04/28 04:36:07;;;;;;;;;;;;;;;13.63;68.28;99885.31;4950072;28;19918;-85
2022/04/28 04:38:33;;;;;;;;;;;;;;;13.52;68.81;99888.22;4948579;28;19922;-87
2022/04/28 04:40:58;;;;;;;;;;;;;;;13.64;68.73;99889.69;4948223;29;19929;-86
2022/04/28 04:43:23;;;;;;;;;;;;;;;13.72;67.70;99891.25;4950178;28;19922;-85
2022/04/28 04:45:49;;;;;;;;;;;;;;;13.83;67.41;99908.69;4950807;28;19961;-86
2022/04/28 04:48:14;;;;;;;;;;;;;;;13.94;66.99;99910.13;4950322;28;19918;-86
2022/04/28 04:50:40;;;;;;;;;;;;;;;14.00;66.17;99906.47;4950133;28;19950;-85
2022/04/28 04:53:05;;;;;;;;;;;;;;;13.85;67.86;99906.84;4949180;28;19922;-86
2022/04/28 04:55:36;;;;;;;;;;;;;;;14.03;66.20;99908.19;4948320;29;19981;-85
2022/04/28 04:58:01;;;;;;;;;;;;;;;14.24;65.29;99909.38;4948933;28;20560;-85
2022/04/28 05:00:27;;;;;;;;;;;;;;;14.47;64.62;99920.25;4959529;28;19917;-85
2022/04/28 05:02:52;;;;;;;;;;;;;;;14.60;64.51;99922.56;4942298;28;19926;-86
2022/04/28 05:05:17;;;;;;;;;;;;;;;14.55;64.37;99928.00;4949936;28;19985;-86
2022/04/28 05:07:43;;;;;;;;;;;;;;;14.73;64.90;99926.63;4949400;28;20384;-85
2022/04/28 05:10:09;;;;;;;;;;;;;;;14.81;64.32;99929.06;4946712;28;19957;-86
2022/04/28 05:12:34;;;;;;;;;;;;;;;15.01;63.70;99917.88;4948111;29;19914;-86
2022/04/28 05:14:59;;;;;;;;;;;;;;;14.74;65.63;99916.91;4948386;28;20398;-87
2022/04/28 05:17:25;;;;;;;;;;;;;;;14.99;64.10;99920.56;4934725;29;19978;-86
2022/04/28 05:19:50;;;;;;;;;;;;;;;15.34;62.75;99925.75;4942707;29;19918;-86
2022/04/28 05:22:15;;;;;;;;;;;;;;;15.62;63.41;99911.59;4949120;28;19949;-86
2022/04/28 05:24:41;;;;;;;;;;;;;;;15.97;61.80;99918.41;4949251;28;19930;-86
2022/04/28 05:27:06;;;;;;;;;;;;;;;16.28;60.61;99922.69;4949395;28;19926;-87
2022/04/28 05:29:31;;;;;;;;;;;;;;;16.53;59.72;99919.16;4949226;28;19930;-87
2022/04/28 05:31:56;;;;;;;;;;;;;;;16.78;58.95;99916.47;4949339;28;19953;-86
2022/04/28 05:34:22;;;;;;;;;;;;;;;16.90;57.96;99918.72;4949120;28;19926;-86
2022/04/28 05:36:48;;;;;;;;;;;;;;;16.73;58.83;99921.97;4947606;29;19980;-87
2022/04/28 05:39:15;;;;;;;;;;;;;;;16.71;59.89;99923.81;4945669;29;20317;-86
2022/04/28 05:41:40;;;;;;;;;;;;;;;17.24;58.54;99924.53;4949334;28;19957;-86
2022/04/28 05:46:53;;;;;;;;;;;;;;;17.23;57.54;99936.16;4949231;29;19953;-85
2022/04/28 05:49:18;;;;;;;;;;;;;;;17.39;56.99;99937.28;4951284;28;20013;-87
2022/04/28 05:51:43;;;;;;;;;;;;;;;17.75;55.44;99931.41;4948969;28;20476;-88
2022/04/28 05:54:09;;;;;;;;;;;;;;;17.98;53.91;99937.63;4946560;28;19926;-88
2022/04/28 05:56:34;;;;;;;;;;;;;;;17.96;55.85;99934.16;4950543;29;19926;-87
2022/04/28 05:58:59;;;;;;;;;;;;;;;18.21;54.42;99933.97;4948898;28;19933;-87
2022/04/28 06:01:25;;;;;;;;;;;;;;;18.49;54.20;99938.13;4948926;28;20353;-87
2022/04/28 06:03:50;;;;;;;;;;;;;;;18.51;55.00;99942.47;4931914;28;20408;-87
2022/04/28 06:06:15;;;;;;;;;;;;;;;18.99;52.71;99928.81;4956623;28;19918;-87
2022/04/28 06:08:41;;;;;;;;;;;;;;;19.44;51.56;99933.78;4952516;28;20760;-87
2022/04/28 06:11:06;;;;;;;;;;;;;;;19.70;51.94;99930.81;4951714;28;19926;-85
2022/04/28 06:13:31;;;;;;;;;;;;;;;19.68;51.64;99930.91;4951238;29;20382;-86
2022/04/28 06:15:58;;;;;;;;;;;;;;;19.84;50.45;99929.22;4952575;28;19929;-87
2022/04/28 06:18:23;;;;;;;;;;;;;;;20.26;51.25;99931.63;4952655;28;19929;-86
2022/04/28 06:20:49;;;;;;;;;;;;;;;20.34;51.53;99934.75;4952426;29;19922;-86
2022/04/28 06:23:14;;;;;;;;;;;;;;;20.60;48.18;99929.84;4951599;28;19942;-86
2022/04/28 06:25:39;;;;;;;;;;;;;;;20.60;49.34;99924.50;4952671;28;20408;-86
2022/04/28 06:28:05;;;;;;;;;;;;;;;20.65;47.16;99919.78;4952380;28;19919;-86
2022/04/28 06:30:30;;;;;;;;;;;;;;;20.87;47.07;99917.69;4952230;28;19982;-86
2022/04/28 06:32:55;;;;;;;;;;;;;;;20.75;45.38;99921.03;4952572;28;19914;-85
2022/04/28 06:35:21;;;;;;;;;;;;;;;20.96;46.18;99918.13;4951555;28;19981;-86
2022/04/28 06:37:46;;;;;;;;;;;;;;;21.00;44.78;99923.25;4952227;28;20633;-85
2022/04/28 06:40:12;;;;;;;;;;;;;;;21.01;44.10;99919.63;4951977;28;19925;-86
2022/04/28 06:42:43;;;;;;;;;;;;;;;21.31;43.55;99928.75;4952405;28;19919;-86
2022/04/28 06:45:09;;;;;;;;;;;;;;;20.92;44.03;99920.97;4952618;28;19957;-85
2022/04/28 06:47:34;;;;;;;;;;;;;;;21.37;43.15;99928.41;4952102;28;19915;-87
2022/04/28 06:50:00;;;;;;;;;;;;;;;21.46;42.82;99922.50;4951186;28;19922;-86
2022/04/28 06:52:25;;;;;;;;;;;;;;;21.75;42.83;99926.25;4951836;28;19985;-85
2022/04/28 06:54:50;;;;;;;;;;;;;;;21.85;42.36;99915.81;4952241;28;19918;-86
2022/04/28 06:57:16;;;;;;;;;;;;;;;22.06;43.08;99919.06;4952126;28;19925;-86
2022/04/28 06:59:41;;;;;;;;;;;;;;;22.63;40.79;99921.06;4949816;28;19942;-86
2022/04/28 07:02:08;;;;;;;;;;;;;;;22.66;39.84;99922.69;4951150;28;19957;-86
2022/04/28 07:04:34;;;;;;;;;;;;;;;22.74;39.96;99923.09;4950980;28;20009;-86
2022/04/28 07:06:59;;;;;;;;;;;;;;;22.48;39.18;99922.84;4950621;28;20017;-86
2022/04/28 07:09:24;;;;;;;;;;;;;;;22.36;38.50;99904.78;4952070;28;19985;-86
2022/04/28 07:11:50;;;;;;;;;;;;;;;22.18;39.78;99926.41;4950454;28;19915;-86
2022/04/28 07:14:16;;;;;;;;;;;;;;;22.10;41.48;99917.91;4951488;29;19974;-86
2022/04/28 07:16:42;;;;;;;;;;;;;;;21.69;40.58;99918.53;4950792;28;19922;-86
2022/04/28 07:19:07;;;;;;;;;;;;;;;21.50;40.59;99917.84;4951563;28;20392;-85
2022/04/28 07:21:33;;;;;;;;;;;;;;;21.46;41.06;99927.88;4951436;28;19957;-87
2022/04/28 07:23:58;;;;;;;;;;;;;;;21.86;40.78;99922.94;4949577;28;19986;-87
2022/04/28 07:26:23;;;;;;;;;;;;;;;22.21;39.12;99919.13;4951412;28;19910;-87
2022/04/28 07:28:49;;;;;;;;;;;;;;;22.11;40.45;99927.72;4951445;28;19914;-87
2022/04/28 07:31:14;;;;;;;;;;;;;;;21.95;40.06;99930.47;4951668;28;19915;-87
2022/04/28 07:33:40;;;;;;;;;;;;;;;22.53;39.45;99927.94;4950344;29;19910;-88
2022/04/28 07:36:06;;;;;;;;;;;;;;;22.89;39.74;99921.25;4950767;28;20321;-88
2022/04/28 07:38:31;;;;;;;;;;;;;;;23.17;37.75;99923.09;4951749;28;20323;-88
2022/04/28 07:40:56;;;;;;;;;;;;;;;23.33;37.60;99925.66;4950461;28;19918;-89
2022/04/28 07:43:22;;;;;;;;;;;;;;;23.20;37.33;99922.91;4951165;28;19923;-88
2022/04/28 07:45:48;;;;;;;;;;;;;;;23.35;37.91;99921.03;4950771;28;19929;-88
2022/04/28 07:48:13;;;;;;;;;;;;;;;23.54;35.92;99927.91;4950924;28;20082;-88
2022/04/28 07:50:39;;;;;;;;;;;;;;;23.47;37.35;99916.69;4950355;28;19922;-87
2022/04/28 07:53:04;;;;;;;;;;;;;;;23.84;36.67;99922.38;4950458;28;19922;-87
2022/04/28 07:55:29;;;;;;;;;;;;;;;23.72;36.54;99920.47;4951065;28;19914;-88
2022/04/28 07:57:55;;;;;;;;;;;;;;;24.09;35.62;99913.50;4950640;28;20429;-87
2022/04/28 08:00:20;;;;;;;;;;;;;;;23.86;35.10;99919.59;4950964;28;19984;-88
2022/04/28 08:02:45;;;;;;;;;;;;;;;24.20;33.87;99920.00;4951091;28;20313;-89
2022/04/28 08:05:11;;;;;;;;;;;;;;;24.06;34.80;99913.72;4950724;28;19930;-88
2022/04/28 08:07:36;;;;;;;;;;;;;;;24.51;34.09;99909.78;4950124;28;20047;-88
2022/04/28 08:10:04;;;;;;;;;;;;;;;24.67;33.57;99907.78;4950656;28;20021;-88
2022/04/28 08:12:29;;;;;;;;;;;;;;;24.95;34.11;99913.94;4949140;28;19915;-88
2022/04/28 08:14:54;;;;;;;;;;;;;;;25.13;34.24;99909.03;4950538;28;19991;-88
2022/04/28 08:17:20;;;;;;;;;;;;;;;24.97;34.90;99901.19;4949380;29;19918;-88
2022/04/28 08:19:45;;;;;;;;;;;;;;;24.56;34.11;99896.84;4948392;29;20747;-87
2022/04/28 08:22:10;;;;;;;;;;;;;;;24.72;33.75;99900.22;4951209;28;19925;-90
2022/04/28 08:24:36;;;;;;;;;;;;;;;24.84;32.00;99899.38;4949950;28;19922;-88
2022/04/28 08:27:01;;;;;;;;;;;;;;;24.49;33.91;99894.59;4950572;28;19922;-88
2022/04/28 08:29:27;;;;;;;;;;;;;;;24.16;32.88;99897.81;4950344;28;19918;-87
2022/04/28 08:31:52;;;;;;;;;;;;;;;24.64;33.16;99891.84;4950954;28;19918;-88
2022/04/28 08:34:18;;;;;;;;;;;;;;;24.32;32.25;99900.28;4950926;28;19981;-88
2022/04/28 08:36:44;;;;;;;;;;;;;;;23.98;33.76;99902.59;4951200;28;19914;-88
2022/04/28 08:39:09;;;;;;;;;;;;;;;24.02;33.93;99897.84;4950796;28;19914;-88
2022/04/28 08:41:36;;;;;;;;;;;;;;;24.08;34.83;99897.44;4950804;28;20012;-87
2022/04/28 08:44:02;;;;;;;;;;;;;;;23.99;33.47;99890.88;4950714;28;19949;-87
2022/04/28 08:49:14;;;;;;;;;;;;;;;24.40;33.36;99891.69;4950469;29;20439;-88
2022/04/28 08:51:40;;;;;;;;;;;;;;;23.71;38.25;99895.38;4950325;28;19919;-86
2022/04/28 08:54:05;;;;;;;;;;;;;;;23.99;34.01;99888.16;4949296;29;19915;-88
2022/04/28 08:56:32;;;;;;;;;;;;;;;23.44;35.04;99886.44;4950116;28;20016;-87
2022/04/28 08:58:58;;;;;;;;;;;;;;;23.85;36.67;99893.59;4950116;28;20064;-88
2022/04/28 09:01:25;;;;;;;;;;;;;;;24.34;35.14;99887.56;4950062;28;20375;-87
2022/04/28 09:03:51;;;;;;;;;;;;;;;24.08;34.28;99889.34;4949951;29;19923;-88
2022/04/28 09:06:17;;;;;;;;;;;;;;;24.56;34.93;99886.94;4950191;28;19994;-89
2022/04/28 09:08:42;;;;;;;;;;;;;;;24.80;33.41;99878.97;4950379;28;20013;-88
2022/04/28 09:11:15;;;;;;;;;;;;;;;24.31;34.59;99879.69;4950340;28;19919;-88
2022/04/28 09:16:25;;;;;;;;;;;;;;;24.71;35.44;99881.47;4950012;29;20419;-88
2022/04/28 09:18:53;;;;;;;;;;;;;;;25.35;33.22;99878.69;4950231;28;19950;-87
2022/04/28 09:21:19;;;;;;;;;;;;;;;25.64;34.75;99875.63;4950342;28;19969;-87
2022/04/28 09:23:44;;;;;;;;;;;;;;;25.53;33.81;99871.03;4948061;28;19929;-86
2022/04/28 09:26:10;;;;;;;;;;;;;;;25.57;32.91;99874.38;4950948;28;19914;-89
2022/04/28 09:28:36;;;;;;;;;;;;;;;25.52;34.19;99875.56;4950615;28;20009;-88
2022/04/28 09:31:01;;;;;;;;;;;;;;;25.31;34.81;99875.31;4950016;28;20009;-88
2022/04/28 09:33:28;;;;;;;;;;;;;;;25.33;34.42;99875.22;4950008;28;19914;-88
2022/04/28 09:35:54;;;;;;;;;;;;;;;25.17;32.48;99870.91;4949179;28;19945;-87
2022/04/28 09:38:19;;;;;;;;;;;;;;;24.58;33.30;99860.75;4949943;29;20336;-88
2022/04/28 09:43:32;;;;;;;;;;;;;;;23.81;33.33;99859.75;4964569;28;19925;-85
2022/04/28 09:45:58;;;;;;;;;;;;;;;23.99;35.29;99860.34;4960321;28;19914;-85
2022/04/28 09:48:27;;;;;;;;;;;;;;;23.82;34.70;99853.38;4959901;28;20653;-86
2022/04/28 09:50:57;;;;;;;;;;;;;;;24.25;35.14;99859.44;4949344;28;19918;-87
2022/04/28 09:53:22;;;;;;;;;;;;;;;24.00;34.97;99846.78;4948549;28;19922;-88
2022/04/28 09:55:50;;;;;;;;;;;;;;;23.71;36.04;99855.00;4949626;28;20388;-88
2022/04/28 09:58:16;;;;;;;;;;;;;;;23.45;36.46;99847.75;4949354;28;19922;-88
2022/04/28 10:00:42;;;;;;;;;;;;;;;23.81;36.17;99847.16;4949841;28;19969;-88
2022/04/28 10:03:09;;;;;;;;;;;;;;;24.10;35.65;99845.19;4950042;28;19938;-88
2022/04/28 10:05:35;;;;;;;;;;;;;;;24.06;36.09;99837.41;4948135;29;20340;-87
2022/04/28 10:08:01;;;;;;;;;;;;;;;24.06;35.64;99838.28;4950598;28;19929;-87
2022/04/28 10:10:26;;;;;;;;;;;;;;;24.40;35.19;99824.28;4951982;28;19925;-88
2022/04/28 10:12:53;;;;;;;;;;;;;;;24.19;36.46;99827.53;4950792;28;19922;-88
2022/04/28 10:15:21;;;;;;;;;;;;;;;23.74;37.49;99841.31;4948931;28;19926;-89
2022/04/28 10:17:48;;;;;;;;;;;;;;;23.92;37.22;99828.44;4949363;28;20308;-88
2022/04/28 10:20:17;;;;;;;;;;;;;;;23.92;36.09;99823.06;4948319;28;19964;-87
2022/04/28 10:22:43;;;;;;;;;;;;;;;23.50;36.90;99811.50;4948949;28;19923;-88
2022/04/28 10:33:27;;;;;;;;;;;;;;;23.07;38.38;99815.16;4958042;28;20439;-89
2022/04/28 10:35:53;;;;;;;;;;;;;;;23.35;37.22;99820.59;4956010;28;19926;-88
2022/04/28 10:38:31;;;;;;;;;;;;;;;23.82;36.40;99813.88;4962138;28;19922;-86
2022/04/28 10:41:01;;;;;;;;;;;;;;;23.90;36.30;99816.06;4964624;28;19985;-86
2022/04/28 10:43:32;;;;;;;;;;;;;;;24.37;35.63;99817.25;4962720;28;20005;-88
2022/04/28 10:46:22;;;;;;;;;;;;;;;24.51;36.20;99815.44;4965626;28;19973;-87
2022/04/28 10:48:51;;;;;;;;;;;;;;;24.63;36.63;99820.84;4951148;28;19922;-88
2022/04/28 10:51:18;;;;;;;;;;;;;;;24.59;35.03;99819.34;4959004;28;20395;-87
2022/04/28 10:54:01;;;;;;;;;;;;;;;23.98;35.41;99816.38;4964076;28;19949;-87
2022/04/28 10:56:42;;;;;;;;;;;;;;;24.05;36.21;99820.41;4965616;28;19938;-86
2022/04/28 10:59:39;;;;;;;;;;;;;;;23.84;36.46;99811.94;4964007;28;19914;-88
2022/04/28 11:02:08;;;;;;;;;;;;;;;23.60;36.75;99809.06;4962211;28;19949;-87
2022/04/28 11:04:35;;;;;;;;;;;;;;;23.37;38.59;99821.34;4965383;28;19942;-87
2022/04/28 11:07:05;;;;;;;;;;;;;;;23.64;37.71;99824.03;4962564;29;19920;-88
2022/04/28 11:09:34;;;;;;;;;;;;;;;23.64;37.03;99824.03;4964826;29;19947;-88
2022/04/28 11:12:13;;;;;;;;;;;;;;;23.83;37.62;99825.50;4966051;28;19921;-88
2022/04/28 11:14:46;;;;;;;;;;;;;;;23.99;37.02;99810.03;4965278;28;19952;-88
2022/04/28 11:17:12;;;;;;;;;;;;;;;24.12;35.98;99802.81;4953021;28;19918;-87
2022/04/28 11:19:38;;;;;;;;;;;;;;;24.00;36.50;99798.28;4952161;29;19922;-89
2022/04/28 11:22:03;;;;;;;;;;;;;;;23.80;37.20;99798.78;4951838;28;19918;-87
2022/04/28 11:24:29;;;;;;;;;;;;;;;23.72;36.66;99797.44;4951554;28;20026;-87
2022/04/28 11:26:58;;;;;;;;;;;;;;;24.07;38.01;99799.59;4951268;28;19922;-87
2022/04/28 11:29:23;;;;;;;;;;;;;;;24.39;35.12;99788.38;4951459;28;19915;-87
2022/04/28 11:31:49;;;;;;;;;;;;;;;24.61;34.77;99784.19;4948681;28;19922;-88
2022/04/28 11:34:17;;;;;;;;;;;;;;;24.40;35.34;99771.22;4952871;28;19918;-88
2022/04/28 11:36:43;;;;;;;;;;;;;;;24.55;35.85;99771.13;4952786;28;20415;-86
2022/04/28 11:39:09;;;;;;;;;;;;;;;24.47;36.35;99775.22;4950798;29;19918;-89
2022/04/28 11:41:39;;;;;;;;;;;;;;;23.91;36.58;99772.88;4950098;28;19918;-88
2022/04/28 11:44:17;;;;;;;;;;;;;;;24.03;38.01;99760.34;4931812;29;19922;-89
2022/04/28 11:46:51;;;;;;;;;;;;;;;23.89;37.39;99763.16;4933062;29;20342;-88
2022/04/28 11:49:17;;;;;;;;;;;;;;;23.97;37.04;99774.25;4942676;28;19985;-86
2022/04/28 11:51:42;;;;;;;;;;;;;;;24.25;36.15;99781.28;4951241;28;20308;-89
2022/04/28 11:54:25;;;;;;;;;;;;;;;24.54;36.47;99780.16;4950676;28;19980;-90
2022/04/28 11:56:51;;;;;;;;;;;;;;;24.46;35.81;99778.03;4948372;28;19915;-87
2022/04/28 11:59:16;;;;;;;;;;;;;;;25.00;34.52;99772.28;4951377;28;19937;-89
2022/04/28 12:01:42;;;;;;;;;;;;;;;25.28;34.70;99780.19;4951176;28;20321;-88
2022/04/28 12:04:08;;;;;;;;;;;;;;;25.43;35.65;99783.59;4951039;28;19929;-89
2022/04/28 12:06:33;;;;;;;;;;;;;;;25.55;35.44;99777.28;4950217;28;19918;-89
2022/04/28 12:14:49;;;;;;;;;;;;;;;26.15;32.84;99761.84;4891751;29;20014;-87
2022/04/28 12:20:04;;;;;;;;;;;;;;;25.54;34.41;99754.78;4950994;29;20282;-87
2022/04/28 12:22:29;;;;;;;;;;;;;;;25.34;35.89;99761.72;4951813;28;19925;-88
2022/04/28 12:25:00;;;;;;;;;;;;;;;25.42;35.10;99752.19;4950508;28;20012;-88
2022/04/28 12:27:26;;;;;;;;;;;;;;;25.45;32.11;99754.66;4951020;28;19975;-87
2022/04/28 12:29:55;;;;;;;;;;;;;;;25.29;30.86;99746.84;4950333;28;19926;-88
2022/04/28 12:32:21;;;;;;;;;;;;;;;25.25;32.37;99756.13;4933582;28;19930;-88
2022/04/28 12:34:56;;;;;;;;;;;;;;;25.06;36.02;99746.69;4929715;28;20405;-88
2022/04/28 12:37:25;;;;;;;;;;;;;;;25.32;33.64;99730.44;4949667;29;20366;-89
2022/04/28 12:40:01;;;;;;;;;;;;;;;25.49;34.62;99724.59;4950324;28;19997;-88
2022/04/28 12:42:29;;;;;;;;;;;;;;;25.82;32.16;99725.66;4950529;28;19920;-88
2022/04/28 12:44:55;;;;;;;;;;;;;;;25.80;31.58;99733.03;4951413;28;19962;-88
2022/04/28 12:47:20;;;;;;;;;;;;;;;25.90;33.86;99727.75;4951265;28;19922;-87
2022/04/28 12:49:48;;;;;;;;;;;;;;;25.59;33.24;99726.59;4950550;28;19918;-87
2022/04/28 12:52:26;;;;;;;;;;;;;;;25.52;33.50;99716.25;4951735;28;19921;-88
2022/04/28 12:55:00;;;;;;;;;;;;;;;26.13;32.21;99714.31;4961941;28;19965;-87
2022/04/28 12:57:29;;;;;;;;;;;;;;;26.34;31.65;99720.69;4961350;28;20371;-87
2022/04/28 12:59:55;;;;;;;;;;;;;;;26.39;31.24;99720.31;4960143;28;19918;-87
2022/04/28 13:02:29;;;;;;;;;;;;;;;26.38;31.50;99703.22;4961625;28;19994;-87
2022/04/28 13:04:54;;;;;;;;;;;;;;;25.97;33.10;99701.97;4959037;28;19918;-86
2022/04/28 13:07:20;;;;;;;;;;;;;;;25.51;32.19;99705.56;4958087;28;19930;-86
2022/04/28 13:09:45;;;;;;;;;;;;;;;25.36;34.13;99697.69;4956511;28;19942;-87
2022/04/28 13:12:11;;;;;;;;;;;;;;;25.46;34.15;99692.44;4955744;28;19924;-87
2022/04/28 13:14:37;;;;;;;;;;;;;;;25.41;34.00;99697.34;4956629;28;19918;-87
2022/04/28 13:17:02;;;;;;;;;;;;;;;25.50;34.26;99693.03;4957022;28;19914;-87
2022/04/28 13:19:28;;;;;;;;;;;;;;;25.51;36.16;99694.78;4973005;28;19929;-88
2022/04/28 13:21:53;;;;;;;;;;;;;;;25.45;35.49;99698.78;4973433;29;20376;-89
2022/04/28 13:24:19;;;;;;;;;;;;;;;25.05;35.94;99695.56;4972456;28;19918;-88
2022/04/28 13:26:44;;;;;;;;;;;;;;;25.09;37.78;99700.59;4973795;28;19910;-88